Terminal Aerodrome Forecast
Issued by NWS Charleston, WV

Home | Current Version | Previous Version | Text Only | Print | Product List | Glossary On
Versions: 1 2 3 4 5 6 7 8 9 10 11 12 13 14 15 16 17 18 19 20 21 22 23 24 25 26
000
FTUS41 KRLX 172104 AAC
TAFEKN
TAF AMD
KEKN 172104Z 1721/1818 15004KT 6SM -RA BR OVC025
     FM172200 17004KT 3SM -RASN OVC012
      TEMPO 1722/1802 3/4SM -SN BR OVC007
     FM180600 28008KT P6SM BKN010=

USA.gov is the U.S. government's official web portal to all federal, state and local government web resources and services.